createdAt,value
2022-12-31T00:01:54.848Z,31.83
2022-12-31T00:04:27.690Z,31.02
2022-12-31T00:06:57.813Z,32.80
2022-12-31T00:09:28.721Z,30.60
2022-12-31T00:11:58.997Z,28.48
2022-12-31T00:14:29.162Z,28.77
2022-12-31T00:16:59.554Z,29.77
2022-12-31T00:19:32.826Z,29.58
2022-12-31T00:22:03.038Z,28.88
2022-12-31T00:24:35.953Z,27.08
2022-12-31T00:27:06.352Z,26.92
2022-12-31T00:29:36.969Z,26.00
2022-12-31T00:32:09.579Z,24.02
2022-12-31T00:34:42.478Z,25.35
2022-12-31T00:37:16.913Z,24.27
2022-12-31T00:39:47.068Z,24.42
2022-12-31T00:42:17.326Z,22.85
2022-12-31T00:44:47.676Z,24.98
2022-12-31T00:47:17.922Z,24.38
2022-12-31T00:49:50.769Z,23.73
2022-12-31T00:52:22.049Z,25.45
2022-12-31T00:54:52.239Z,20.83
2022-12-31T00:57:22.446Z,24.70
2022-12-31T00:59:52.966Z,24.48
2022-12-31T01:02:23.822Z,22.65
2022-12-31T01:04:56.931Z,25.27
2022-12-31T01:07:27.225Z,24.27
2022-12-31T01:09:57.792Z,23.05
2022-12-31T01:12:28.115Z,23.73
2022-12-31T01:14:58.238Z,22.90
2022-12-31T01:17:28.464Z,23.27
2022-12-31T01:20:01.649Z,23.58
2022-12-31T01:22:33.141Z,23.90
2022-12-31T01:25:03.353Z,23.63
2022-12-31T01:27:33.582Z,24.13
2022-12-31T01:30:03.776Z,25.13
2022-12-31T01:32:34.748Z,24.38
2022-12-31T01:35:08.331Z,25.05
2022-12-31T01:37:39.188Z,25.95
2022-12-31T01:40:10.582Z,25.67
2022-12-31T01:42:40.947Z,24.75
2022-12-31T01:45:15.024Z,27.10
2022-12-31T01:50:24.102Z,26.20
2022-12-31T01:52:57.781Z,24.65
2022-12-31T01:55:33.303Z,26.08
2022-12-31T01:58:08.115Z,27.73
2022-12-31T02:00:38.819Z,26.08
2022-12-31T02:03:10.637Z,28.90
2022-12-31T02:05:50.214Z,26.05
2022-12-31T02:08:21.039Z,27.80
2022-12-31T02:10:51.249Z,29.02
2022-12-31T02:13:21.533Z,28.95
2022-12-31T02:16:00.852Z,27.20
2022-12-31T02:18:38.055Z,30.13
2022-12-31T02:21:33.956Z,27.90
2022-12-31T02:24:33.754Z,29.45
2022-12-31T02:27:08.432Z,30.52
2022-12-31T02:30:06.692Z,26.88
2022-12-31T02:32:53.470Z,27.05
2022-12-31T02:35:27.990Z,27.75
2022-12-31T02:38:07.761Z,27.65
2022-12-31T02:40:41.110Z,26.55
2022-12-31T02:43:11.323Z,31.00
2022-12-31T02:45:48.143Z,35.03
2022-12-31T02:48:32.592Z,30.05
2022-12-31T02:51:15.419Z,28.33
2022-12-31T02:54:11.712Z,28.25
2022-12-31T02:56:48.532Z,26.73
2022-12-31T02:59:39.062Z,27.17
2022-12-31T03:02:19.716Z,28.80
2022-12-31T03:04:54.364Z,29.58
2022-12-31T03:07:27.021Z,24.20
2022-12-31T03:09:57.746Z,29.65
2022-12-31T03:12:42.533Z,23.13
2022-12-31T03:15:22.599Z,29.63
2022-12-31T03:17:58.838Z,29.55
2022-12-31T03:20:45.340Z,25.63
2022-12-31T03:23:19.165Z,23.95
2022-12-31T03:25:46.911Z,23.15
2022-12-31T03:28:20.762Z,20.17
2022-12-31T03:30:52.638Z,22.27
2022-12-31T03:33:27.241Z,23.73
2022-12-31T03:35:57.443Z,26.25
2022-12-31T03:38:27.850Z,22.50
2022-12-31T03:40:58.266Z,22.65
2022-12-31T03:43:28.592Z,22.15
2022-12-31T03:45:59.973Z,24.60
2022-12-31T03:48:32.869Z,23.73
2022-12-31T03:51:03.035Z,21.67
2022-12-31T03:53:34.979Z,23.02
2022-12-31T03:56:05.216Z,18.70
2022-12-31T03:58:35.424Z,20.35
2022-12-31T04:01:05.708Z,19.30
2022-12-31T04:03:38.566Z,20.30
2022-12-31T04:06:08.903Z,19.75
2022-12-31T04:08:39.088Z,17.40
2022-12-31T04:11:09.738Z,19.23
2022-12-31T04:13:39.930Z,18.90
2022-12-31T04:16:10.271Z,18.08
2022-12-31T04:18:43.228Z,17.98
2022-12-31T04:21:13.421Z,18.70
2022-12-31T04:23:43.556Z,17.95
2022-12-31T04:26:13.762Z,17.55
2022-12-31T04:28:43.935Z,21.05
2022-12-31T04:31:14.109Z,18.50
2022-12-31T04:33:46.910Z,18.85
2022-12-31T04:36:17.103Z,18.30
2022-12-31T04:38:47.289Z,18.92
2022-12-31T04:41:21.050Z,18.88
2022-12-31T04:43:53.873Z,19.48
2022-12-31T04:46:25.892Z,17.92
2022-12-31T04:48:59.251Z,18.30
2022-12-31T04:51:30.827Z,18.98
2022-12-31T04:54:01.595Z,19.42
2022-12-31T04:56:32.214Z,16.63
2022-12-31T04:59:02.430Z,18.63
2022-12-31T05:01:33.283Z,19.48
2022-12-31T05:04:06.273Z,17.85
2022-12-31T05:06:36.543Z,17.95
2022-12-31T05:09:06.818Z,17.05
2022-12-31T05:11:38.042Z,16.60
2022-12-31T05:14:08.239Z,17.27
2022-12-31T05:16:38.483Z,16.60
2022-12-31T05:19:11.502Z,15.93
2022-12-31T05:21:41.953Z,16.83
2022-12-31T05:24:12.171Z,17.17
2022-12-31T05:26:42.343Z,16.60
2022-12-31T05:29:12.699Z,15.40
2022-12-31T05:31:42.926Z,14.65
2022-12-31T05:34:16.011Z,15.75
2022-12-31T05:36:46.229Z,16.07
2022-12-31T05:39:16.325Z,15.38
2022-12-31T05:41:46.579Z,14.45
2022-12-31T05:44:19.294Z,14.38
2022-12-31T05:46:52.460Z,14.38
2022-12-31T05:49:25.580Z,14.77
2022-12-31T05:51:56.115Z,12.60
2022-12-31T05:54:26.272Z,13.35
2022-12-31T05:56:56.557Z,13.68
2022-12-31T05:59:26.896Z,14.55
2022-12-31T06:01:57.662Z,14.68
2022-12-31T06:04:30.590Z,14.38
2022-12-31T06:07:00.807Z,12.73
2022-12-31T06:09:31.135Z,15.45
2022-12-31T06:12:01.292Z,14.95
2022-12-31T06:14:31.502Z,15.32
2022-12-31T06:17:01.800Z,13.45
2022-12-31T06:19:34.574Z,13.70
2022-12-31T06:22:04.752Z,16.00
2022-12-31T06:24:34.885Z,15.02
2022-12-31T06:27:05.145Z,15.82
2022-12-31T06:29:36.019Z,17.02
2022-12-31T06:32:06.344Z,15.70
2022-12-31T06:34:39.060Z,16.15
2022-12-31T06:37:09.318Z,15.70
2022-12-31T06:39:39.464Z,18.17
2022-12-31T06:42:09.641Z,14.85
2022-12-31T06:44:39.817Z,15.73
2022-12-31T06:47:09.947Z,14.40
2022-12-31T06:49:42.931Z,15.40
2022-12-31T06:52:13.183Z,14.75
2022-12-31T06:54:44.108Z,13.85
2022-12-31T06:57:14.899Z,14.15
2022-12-31T06:59:46.951Z,15.05
2022-12-31T07:02:49.848Z,14.10
2022-12-31T07:05:31.802Z,13.77
2022-12-31T07:08:17.176Z,12.43
2022-12-31T07:10:55.215Z,13.32
2022-12-31T07:13:53.394Z,13.98
2022-12-31T07:16:39.705Z,13.38
2022-12-31T07:19:19.953Z,16.65
2022-12-31T07:21:56.073Z,16.30
2022-12-31T07:24:27.536Z,16.70
2022-12-31T07:27:15.072Z,17.30
2022-12-31T07:30:05.205Z,17.10
2022-12-31T07:32:58.828Z,15.88
2022-12-31T07:35:37.136Z,13.90
2022-12-31T07:38:22.085Z,18.33
2022-12-31T07:41:05.545Z,19.17
2022-12-31T07:43:52.639Z,18.02
2022-12-31T07:46:35.249Z,17.33
2022-12-31T07:49:06.128Z,15.38
2022-12-31T07:51:36.899Z,19.17
2022-12-31T07:54:13.838Z,20.40
2022-12-31T07:56:45.843Z,16.85
2022-12-31T07:59:25.547Z,14.75
2022-12-31T08:02:04.440Z,14.80
2022-12-31T08:04:44.104Z,13.02
2022-12-31T08:07:22.919Z,13.48
2022-12-31T08:10:04.300Z,13.38
2022-12-31T08:12:38.393Z,12.18
2022-12-31T08:15:16.052Z,12.45
2022-12-31T08:17:47.264Z,14.05
2022-12-31T08:20:19.474Z,14.00
2022-12-31T08:23:18.237Z,14.55
2022-12-31T08:26:13.716Z,12.88
2022-12-31T08:28:56.824Z,12.10
2022-12-31T08:31:34.948Z,11.95
2022-12-31T08:34:12.772Z,14.30
2022-12-31T08:36:52.485Z,12.07
2022-12-31T08:39:34.509Z,12.98
2022-12-31T08:42:15.729Z,13.95
2022-12-31T08:44:52.541Z,15.15
2022-12-31T08:47:35.481Z,13.43
2022-12-31T08:50:16.027Z,13.65
2022-12-31T08:52:46.813Z,14.55
2022-12-31T08:55:19.683Z,14.00
2022-12-31T08:58:05.326Z,13.98
2022-12-31T09:00:36.966Z,16.48
2022-12-31T09:03:44.826Z,17.65
2022-12-31T09:06:21.970Z,13.93
2022-12-31T09:08:58.990Z,15.80
2022-12-31T09:11:36.015Z,13.55
2022-12-31T09:14:21.716Z,13.73
2022-12-31T09:17:02.290Z,14.68
2022-12-31T09:19:32.666Z,14.55
2022-12-31T09:22:03.711Z,12.75
2022-12-31T09:24:37.595Z,13.65
2022-12-31T09:27:14.366Z,13.02
2022-12-31T09:29:58.917Z,15.05
2022-12-31T09:32:42.161Z,13.63
2022-12-31T09:35:25.397Z,14.93
2022-12-31T09:38:05.292Z,12.98
2022-12-31T09:40:53.244Z,13.60
2022-12-31T09:44:07.999Z,14.27
2022-12-31T09:47:19.713Z,12.35
2022-12-31T09:50:25.646Z,13.70
2022-12-31T09:53:16.335Z,12.00
2022-12-31T09:55:52.664Z,13.38
2022-12-31T09:58:41.004Z,14.25
2022-12-31T10:01:24.560Z,13.30
2022-12-31T10:04:33.100Z,13.02
2022-12-31T10:07:12.103Z,13.23
2022-12-31T10:10:16.207Z,14.35
2022-12-31T10:13:32.546Z,14.65
2022-12-31T10:16:16.483Z,13.40
2022-12-31T10:19:05.180Z,14.02
2022-12-31T10:21:50.383Z,14.77
2022-12-31T10:24:48.600Z,14.65
2022-12-31T10:27:37.224Z,13.40
2022-12-31T10:30:18.087Z,12.98
2022-12-31T10:33:01.624Z,12.88
2022-12-31T10:35:38.829Z,13.30
2022-12-31T10:38:29.589Z,13.10
2022-12-31T10:41:34.974Z,12.63
2022-12-31T10:44:41.799Z,13.50
2022-12-31T10:47:37.011Z,13.80
2022-12-31T10:50:34.507Z,11.85
2022-12-31T10:53:44.443Z,13.02
2022-12-31T10:56:49.762Z,13.10
2022-12-31T10:59:54.269Z,12.55
2022-12-31T11:03:01.705Z,15.23
2022-12-31T11:06:03.589Z,13.93
2022-12-31T11:08:56.729Z,13.80
2022-12-31T11:11:38.750Z,14.50
2022-12-31T11:14:47.380Z,13.30
2022-12-31T11:17:40.667Z,14.85
2022-12-31T11:20:30.252Z,14.13
2022-12-31T11:23:12.625Z,15.25
2022-12-31T11:25:57.871Z,14.02
2022-12-31T11:29:04.348Z,15.63
2022-12-31T11:31:50.274Z,13.25
2022-12-31T11:34:38.307Z,15.20
2022-12-31T11:37:27.679Z,13.20
2022-12-31T11:40:05.236Z,14.30
2022-12-31T11:42:53.623Z,13.27
2022-12-31T11:45:46.962Z,13.60
2022-12-31T11:48:32.917Z,13.60
2022-12-31T11:51:25.653Z,12.55
2022-12-31T11:54:18.060Z,16.00
2022-12-31T11:56:54.044Z,17.77
2022-12-31T11:59:24.894Z,18.48
2022-12-31T12:02:01.239Z,16.92
2022-12-31T12:04:31.540Z,16.15
2022-12-31T12:07:04.552Z,16.48
2022-12-31T12:09:38.299Z,18.80
2022-12-31T12:12:09.702Z,18.73
2022-12-31T12:14:42.608Z,16.77
2022-12-31T12:17:17.630Z,17.27
2022-12-31T12:19:50.028Z,18.15
2022-12-31T12:22:26.628Z,17.75
2022-12-31T12:24:58.491Z,16.67
2022-12-31T12:27:32.641Z,15.38
2022-12-31T12:30:12.773Z,16.48
2022-12-31T12:32:54.576Z,16.25
2022-12-31T12:35:29.141Z,16.67
2022-12-31T12:38:07.692Z,16.85
2022-12-31T12:40:38.450Z,17.58
2022-12-31T12:43:09.340Z,16.45
2022-12-31T12:45:51.193Z,16.88
2022-12-31T12:48:34.201Z,16.98
2022-12-31T12:51:16.056Z,17.55
2022-12-31T12:53:59.019Z,15.65
2022-12-31T12:56:40.062Z,16.38
2022-12-31T12:59:38.070Z,14.85
2022-12-31T13:02:30.736Z,15.07
2022-12-31T13:05:13.835Z,18.20
2022-12-31T13:07:55.643Z,18.38
2022-12-31T13:10:45.691Z,19.70
2022-12-31T13:13:33.289Z,18.80
2022-12-31T13:16:14.910Z,15.75
2022-12-31T13:18:55.934Z,18.95
2022-12-31T13:21:38.016Z,16.58
2022-12-31T13:24:18.420Z,16.90
2022-12-31T13:26:58.098Z,15.70
2022-12-31T13:29:31.960Z,15.95
2022-12-31T13:32:08.663Z,17.27
2022-12-31T13:34:44.191Z,14.82
2022-12-31T13:37:25.490Z,14.73
2022-12-31T13:40:02.381Z,17.33
2022-12-31T13:42:42.791Z,16.42
2022-12-31T13:45:19.807Z,16.73
2022-12-31T13:47:55.332Z,17.38
2022-12-31T13:50:32.485Z,17.85
2022-12-31T13:53:08.596Z,18.90
2022-12-31T13:55:45.186Z,18.95
2022-12-31T13:58:28.035Z,18.77
2022-12-31T14:01:04.757Z,16.70
2022-12-31T14:03:43.295Z,18.45
2022-12-31T14:06:21.973Z,17.60
2022-12-31T14:08:52.373Z,18.30
2022-12-31T14:11:35.070Z,17.25
2022-12-31T14:14:17.401Z,18.02
2022-12-31T14:16:55.231Z,17.60
2022-12-31T14:19:41.058Z,17.45
2022-12-31T14:22:20.062Z,18.02
2022-12-31T14:24:52.619Z,17.45
2022-12-31T14:27:28.700Z,18.25
2022-12-31T14:30:05.055Z,18.23
2022-12-31T14:33:11.545Z,18.23
2022-12-31T14:36:10.769Z,20.05
2022-12-31T14:38:56.068Z,18.40
2022-12-31T14:41:46.338Z,19.35
2022-12-31T14:44:32.782Z,17.70
2022-12-31T14:47:16.379Z,18.90
2022-12-31T14:49:55.726Z,18.20
2022-12-31T14:52:32.958Z,19.73
2022-12-31T14:55:27.024Z,18.83
2022-12-31T15:00:56.252Z,20.17
2022-12-31T15:03:45.908Z,23.02
2022-12-31T15:06:34.966Z,21.63
2022-12-31T15:09:11.639Z,20.80
2022-12-31T15:11:53.175Z,21.05
2022-12-31T15:14:39.281Z,20.95
2022-12-31T15:17:22.758Z,22.00
2022-12-31T15:20:23.023Z,22.10
2022-12-31T15:22:57.096Z,20.40
2022-12-31T15:25:40.005Z,21.38
2022-12-31T15:28:27.748Z,22.20
2022-12-31T15:31:20.074Z,22.08
2022-12-31T15:34:02.877Z,22.20
2022-12-31T15:36:35.872Z,21.95
2022-12-31T15:39:28.410Z,24.80
2022-12-31T15:44:53.539Z,25.70
2022-12-31T15:47:31.220Z,25.55
2022-12-31T15:50:04.895Z,24.85
2022-12-31T15:52:44.699Z,25.27
2022-12-31T15:55:28.047Z,23.67
2022-12-31T15:58:02.575Z,25.05
2022-12-31T16:00:47.635Z,24.02
2022-12-31T16:03:25.285Z,22.77
2022-12-31T16:06:01.595Z,24.27
2022-12-31T16:08:34.692Z,22.85
2022-12-31T16:11:09.261Z,25.27
2022-12-31T16:13:43.222Z,24.92
2022-12-31T16:16:24.153Z,24.45
2022-12-31T16:18:55.181Z,25.38
2022-12-31T16:21:35.557Z,25.77
2022-12-31T16:24:08.771Z,28.05
2022-12-31T16:26:47.984Z,28.05
2022-12-31T16:29:20.294Z,25.05
2022-12-31T16:31:53.262Z,26.50
2022-12-31T16:34:26.194Z,27.58
2022-12-31T16:37:01.723Z,27.65
2022-12-31T16:39:34.785Z,25.20
2022-12-31T16:42:20.972Z,29.70
2022-12-31T16:44:52.196Z,29.38
2022-12-31T16:47:25.494Z,29.02
2022-12-31T16:50:04.181Z,48.17
2022-12-31T16:52:38.550Z,36.40
2022-12-31T16:55:12.063Z,40.08
2022-12-31T16:57:47.053Z,33.40
2022-12-31T17:00:21.242Z,35.13
2022-12-31T17:02:59.695Z,33.30
2022-12-31T17:05:30.726Z,32.90
2022-12-31T17:08:01.103Z,35.58
2022-12-31T17:10:37.542Z,35.45
2022-12-31T17:13:27.677Z,37.13
2022-12-31T17:16:00.764Z,33.47
2022-12-31T17:18:38.410Z,36.40
2022-12-31T17:21:11.699Z,34.55
2022-12-31T17:23:44.260Z,37.38
2022-12-31T17:26:16.787Z,37.72
2022-12-31T17:28:53.002Z,36.28
2022-12-31T17:31:33.291Z,32.20
2022-12-31T17:34:32.581Z,29.52
2022-12-31T17:37:21.320Z,28.35
2022-12-31T17:39:53.888Z,32.42
2022-12-31T17:42:30.061Z,36.15
2022-12-31T17:45:05.130Z,32.50
2022-12-31T17:47:41.216Z,37.72
2022-12-31T17:50:22.781Z,36.90
2022-12-31T17:52:53.119Z,36.92
2022-12-31T17:55:23.402Z,36.97
2022-12-31T17:57:56.202Z,31.15
2022-12-31T18:00:29.901Z,31.63
2022-12-31T18:03:00.229Z,34.33
2022-12-31T18:05:30.577Z,32.42
2022-12-31T18:08:00.792Z,38.13
2022-12-31T18:10:34.709Z,37.30
2022-12-31T18:13:07.891Z,35.63
2022-12-31T18:15:40.728Z,36.50
2022-12-31T18:18:25.271Z,35.33
2022-12-31T18:20:58.632Z,35.05
2022-12-31T18:23:34.349Z,37.35
2022-12-31T18:26:04.643Z,39.45
2022-12-31T18:28:35.085Z,38.88
2022-12-31T18:31:08.140Z,42.30
2022-12-31T18:33:38.375Z,40.40
2022-12-31T18:36:13.092Z,41.13
2022-12-31T18:38:44.027Z,41.10
2022-12-31T18:41:20.449Z,42.20
2022-12-31T18:43:50.948Z,42.13
2022-12-31T18:46:27.081Z,40.20
2022-12-31T18:48:57.365Z,43.40
2022-12-31T18:51:32.043Z,40.42
2022-12-31T18:54:02.903Z,39.13
2022-12-31T18:56:33.207Z,38.95
2022-12-31T18:59:03.401Z,37.67
2022-12-31T19:01:39.888Z,40.88
2022-12-31T19:04:18.802Z,38.25
2022-12-31T19:06:56.161Z,38.00
2022-12-31T19:09:45.063Z,40.37
2022-12-31T19:12:17.292Z,42.28
2022-12-31T19:14:47.411Z,39.22
2022-12-31T19:17:21.818Z,42.40
2022-12-31T19:19:52.102Z,38.45
2022-12-31T19:22:22.320Z,38.80
2022-12-31T19:24:52.860Z,38.85
2022-12-31T19:27:23.063Z,38.72
2022-12-31T19:29:53.417Z,36.67
2022-12-31T19:32:26.218Z,37.67
2022-12-31T19:34:56.542Z,37.70
2022-12-31T19:37:26.807Z,41.88
2022-12-31T19:39:57.177Z,42.30
2022-12-31T19:42:27.946Z,40.47
2022-12-31T19:44:58.100Z,36.40
2022-12-31T19:47:30.910Z,37.22
2022-12-31T19:50:01.251Z,38.58
2022-12-31T19:52:31.572Z,36.40
2022-12-31T19:55:01.743Z,36.45
2022-12-31T19:57:31.940Z,35.30
2022-12-31T20:00:02.499Z,32.45
2022-12-31T20:02:36.233Z,33.38
2022-12-31T20:05:06.937Z,33.53
2022-12-31T20:07:37.200Z,33.80
2022-12-31T20:10:11.029Z,33.50
2022-12-31T20:12:44.511Z,30.70
2022-12-31T20:15:15.024Z,32.22
2022-12-31T20:17:47.846Z,31.42
2022-12-31T20:20:18.253Z,33.45
2022-12-31T20:22:48.675Z,28.40
2022-12-31T20:25:19.210Z,28.00
2022-12-31T20:27:49.440Z,26.83
2022-12-31T20:30:23.222Z,26.30
2022-12-31T20:32:56.090Z,31.30
2022-12-31T20:35:26.329Z,34.72
2022-12-31T20:37:56.794Z,34.88
2022-12-31T20:40:27.421Z,36.17
2022-12-31T20:42:57.997Z,37.80
2022-12-31T20:45:28.222Z,37.58
2022-12-31T20:48:01.159Z,43.88
2022-12-31T20:50:31.457Z,41.85
2022-12-31T20:53:02.151Z,41.80
2022-12-31T20:55:32.801Z,42.95
2022-12-31T20:58:04.338Z,40.03
2022-12-31T21:00:34.500Z,37.10
2022-12-31T21:03:23.778Z,38.10
2022-12-31T21:05:57.976Z,33.58
2022-12-31T21:08:34.347Z,34.28
2022-12-31T21:11:25.736Z,29.45
2022-12-31T21:13:53.392Z,25.73
2022-12-31T21:16:23.668Z,27.98
2022-12-31T21:18:57.000Z,25.58
2022-12-31T21:21:27.711Z,24.17
2022-12-31T21:23:57.939Z,22.17
2022-12-31T21:26:30.856Z,21.63
2022-12-31T21:29:01.421Z,21.33
2022-12-31T21:31:31.612Z,21.63
2022-12-31T21:34:04.476Z,25.23
2022-12-31T21:36:34.783Z,28.58
2022-12-31T21:39:05.066Z,26.92
2022-12-31T21:41:47.615Z,31.45
2022-12-31T21:44:17.839Z,26.35
2022-12-31T21:47:25.130Z,26.85
2022-12-31T21:49:43.597Z,39.25
2022-12-31T21:52:30.807Z,36.28
2022-12-31T21:55:15.049Z,38.00
2022-12-31T21:58:24.229Z,33.47
2022-12-31T22:00:48.858Z,27.88
2022-12-31T22:03:28.482Z,27.27
2022-12-31T22:06:09.135Z,26.52
2022-12-31T22:08:40.276Z,27.05
2022-12-31T22:11:11.549Z,24.77
2022-12-31T22:13:42.292Z,24.13
2022-12-31T22:16:13.296Z,23.88
2022-12-31T22:18:45.598Z,26.10
2022-12-31T22:21:20.713Z,21.27
2022-12-31T22:23:52.582Z,21.52
2022-12-31T22:26:24.575Z,22.98
2022-12-31T22:28:59.224Z,22.92
2022-12-31T22:31:31.713Z,19.67
2022-12-31T22:34:02.296Z,19.42
2022-12-31T22:36:35.203Z,21.33
2022-12-31T22:39:05.460Z,20.13
2022-12-31T22:41:36.787Z,24.52
2022-12-31T22:44:06.990Z,25.48
2022-12-31T22:46:40.702Z,29.50
2022-12-31T22:49:13.560Z,30.98
2022-12-31T22:51:57.026Z,26.92
2022-12-31T22:54:30.009Z,22.38
2022-12-31T22:57:01.346Z,23.25
2022-12-31T22:59:31.569Z,22.67
2022-12-31T23:02:01.888Z,23.83
2022-12-31T23:04:32.301Z,23.23
2022-12-31T23:07:05.166Z,24.55
2022-12-31T23:09:48.407Z,26.33
2022-12-31T23:12:18.741Z,24.30
2022-12-31T23:15:01.342Z,23.70
2022-12-31T23:17:43.835Z,25.83
2022-12-31T23:20:29.583Z,23.35
2022-12-31T23:23:08.810Z,23.30
2022-12-31T23:25:44.292Z,23.20
2022-12-31T23:28:16.732Z,23.67
2022-12-31T23:30:47.432Z,27.00
2022-12-31T23:33:20.390Z,25.30
2022-12-31T23:35:52.004Z,29.38
2022-12-31T23:38:24.803Z,31.60
2022-12-31T23:40:55.314Z,30.10
2022-12-31T23:43:25.875Z,33.40
2022-12-31T23:45:56.446Z,38.65
2022-12-31T23:48:26.672Z,41.88
2022-12-31T23:50:56.816Z,41.80
2022-12-31T23:53:29.678Z,39.13
2022-12-31T23:56:13.897Z,37.75
2022-12-31T23:58:46.986Z,44.22
